createdAt,value
2018-06-21T00:00:01.219Z,16.7
2018-06-21T00:01:09.103Z,16.7
2018-06-21T00:02:16.997Z,16.7
2018-06-21T00:03:24.884Z,16.7
2018-06-21T00:04:32.771Z,16.6
2018-06-21T00:05:40.658Z,16.6
2018-06-21T00:06:48.543Z,16.6
2018-06-21T00:07:56.427Z,16.6
2018-06-21T00:09:04.309Z,16.6
2018-06-21T00:10:12.204Z,16.6
2018-06-21T00:11:20.090Z,16.6
2018-06-21T00:12:27.984Z,16.6
2018-06-21T00:13:35.871Z,16.6
2018-06-21T00:14:43.764Z,16.5
2018-06-21T00:15:51.647Z,16.5
2018-06-21T00:16:59.548Z,16.5
2018-06-21T00:18:07.427Z,16.5
2018-06-21T00:19:15.309Z,16.5
2018-06-21T00:20:23.196Z,16.5
2018-06-21T00:21:31.111Z,16.5
2018-06-21T00:22:38.997Z,16.4
2018-06-21T00:23:46.884Z,16.5
2018-06-21T00:24:54.772Z,16.4
2018-06-21T00:26:02.664Z,16.4
2018-06-21T00:27:10.553Z,16.4
2018-06-21T00:28:18.437Z,16.3
2018-06-21T00:29:26.347Z,16.3
2018-06-21T00:30:33.958Z,16.3
2018-06-21T00:31:41.848Z,16.3
2018-06-21T00:32:49.732Z,16.3
2018-06-21T00:33:57.621Z,16.3
2018-06-21T00:35:05.236Z,16.3
2018-06-21T00:36:13.121Z,16.3
2018-06-21T00:37:21.005Z,16.3
2018-06-21T00:38:28.617Z,16.2
2018-06-21T00:39:36.505Z,16.3
2018-06-21T00:40:44.122Z,16.3
2018-06-21T00:41:52.009Z,16.3
2018-06-21T00:42:59.893Z,16.3
2018-06-21T00:44:07.821Z,16.2
2018-06-21T00:45:15.708Z,16.2
2018-06-21T00:46:23.594Z,16.2
2018-06-21T00:47:31.476Z,16.2
2018-06-21T00:48:39.360Z,16.2
2018-06-21T00:49:47.252Z,16.1
2018-06-21T00:50:55.138Z,16.1
2018-06-21T00:52:03.028Z,16.1
2018-06-21T00:53:10.913Z,16.2
2018-06-21T00:54:18.799Z,16.1
2018-06-21T00:55:26.680Z,16.1
2018-06-21T00:56:34.573Z,16.1
2018-06-21T00:57:42.455Z,16.1
2018-06-21T00:58:50.345Z,16.1
2018-06-21T00:59:58.229Z,16
2018-06-21T01:01:06.121Z,16
2018-06-21T01:02:14.007Z,16
2018-06-21T01:03:21.893Z,16
2018-06-21T01:04:29.808Z,16
2018-06-21T01:05:37.700Z,16
2018-06-21T01:06:45.590Z,16
2018-06-21T01:07:53.479Z,16
2018-06-21T01:09:01.365Z,15.9
2018-06-21T01:10:09.255Z,16
2018-06-21T01:11:17.141Z,16
2018-06-21T01:12:25.026Z,16
2018-06-21T01:13:32.912Z,16
2018-06-21T01:14:40.817Z,16
2018-06-21T01:15:48.700Z,15.9
2018-06-21T01:16:56.587Z,15.9
2018-06-21T01:18:04.472Z,15.9
2018-06-21T01:19:12.357Z,15.9
2018-06-21T01:20:20.246Z,15.9
2018-06-21T01:21:28.139Z,15.9
2018-06-21T01:22:36.033Z,15.9
2018-06-21T01:23:43.921Z,15.9
2018-06-21T01:24:51.814Z,15.9
2018-06-21T01:25:59.692Z,15.8
2018-06-21T01:27:07.629Z,15.8
2018-06-21T01:28:15.515Z,15.8
2018-06-21T01:29:23.430Z,15.8
2018-06-21T01:30:31.036Z,15.8
2018-06-21T01:31:38.918Z,15.8
2018-06-21T01:32:46.812Z,15.8
2018-06-21T01:33:54.140Z,15.8
2018-06-21T01:35:02.025Z,15.8
2018-06-21T01:36:09.910Z,15.7
2018-06-21T01:37:17.528Z,15.7
2018-06-21T01:38:25.411Z,15.7
2018-06-21T01:39:33.326Z,15.7
2018-06-21T01:40:41.215Z,15.7
2018-06-21T01:41:48.821Z,15.7
2018-06-21T01:42:56.707Z,15.6
2018-06-21T01:44:04.598Z,15.7
2018-06-21T01:45:12.479Z,15.7
2018-06-21T01:46:20.365Z,15.7
2018-06-21T01:47:28.254Z,15.7
2018-06-21T01:48:36.141Z,15.6
2018-06-21T01:49:44.028Z,15.6
2018-06-21T01:50:51.915Z,15.6
2018-06-21T01:51:59.807Z,15.6
2018-06-21T01:53:07.692Z,15.5
2018-06-21T01:54:15.585Z,15.5
2018-06-21T01:55:23.191Z,15.5
2018-06-21T01:56:31.080Z,15.5
2018-06-21T01:57:38.965Z,15.5
2018-06-21T01:58:46.859Z,15.4
2018-06-21T01:59:54.739Z,15.5
2018-06-21T02:01:02.626Z,15.4
2018-06-21T02:02:10.233Z,15.4
2018-06-21T02:03:18.133Z,15.4
2018-06-21T02:04:26.017Z,15.4
2018-06-21T02:05:33.638Z,15.4
2018-06-21T02:06:41.520Z,15.5
2018-06-21T02:07:49.416Z,15.4
2018-06-21T02:08:57.301Z,15.5
2018-06-21T02:10:05.194Z,15.5
2018-06-21T02:11:13.082Z,15.5
2018-06-21T02:12:20.695Z,15.4
2018-06-21T02:13:28.584Z,15.5
2018-06-21T02:14:36.499Z,15.4
2018-06-21T02:15:44.385Z,15.4
2018-06-21T02:16:52.273Z,15.4
2018-06-21T02:18:00.159Z,15.4
2018-06-21T02:19:08.042Z,15.4
2018-06-21T02:20:15.925Z,15.4
2018-06-21T02:21:23.534Z,15.3
2018-06-21T02:22:31.421Z,15.4
2018-06-21T02:23:39.308Z,15.4
2018-06-21T02:24:47.191Z,15.4
2018-06-21T02:25:55.077Z,15.3
2018-06-21T02:27:02.956Z,15.3
2018-06-21T02:28:10.843Z,15.3
2018-06-21T02:29:18.728Z,15.3
2018-06-21T02:30:26.615Z,15.3
2018-06-21T02:31:34.499Z,15.3
2018-06-21T02:32:42.386Z,15.3
2018-06-21T02:33:50.271Z,15.3
2018-06-21T02:34:57.885Z,15.3
2018-06-21T02:36:05.773Z,15.3
2018-06-21T02:37:13.663Z,15.4
2018-06-21T02:38:21.561Z,15.4
2018-06-21T02:39:29.435Z,15.4
2018-06-21T02:40:37.320Z,15.4
2018-06-21T02:41:45.231Z,15.3
2018-06-21T02:42:53.115Z,15.4
2018-06-21T02:44:01.005Z,15.3
2018-06-21T02:45:08.886Z,15.4
2018-06-21T02:46:16.775Z,15.4
2018-06-21T02:47:24.664Z,15.5
2018-06-21T02:48:32.547Z,15.5
2018-06-21T02:49:40.442Z,15.5
2018-06-21T02:50:48.327Z,15.5
2018-06-21T02:51:56.209Z,15.5
2018-06-21T02:53:03.828Z,15.6
2018-06-21T02:54:11.718Z,15.6
2018-06-21T02:55:19.605Z,15.6
2018-06-21T02:56:27.485Z,15.6
2018-06-21T02:57:35.377Z,15.5
2018-06-21T02:58:43.262Z,15.6
2018-06-21T02:59:51.181Z,15.6
2018-06-21T03:00:59.066Z,15.6
2018-06-21T03:02:06.950Z,15.6
2018-06-21T03:03:14.839Z,15.6
2018-06-21T03:04:22.740Z,15.6
2018-06-21T03:05:30.621Z,15.6
2018-06-21T03:06:38.514Z,15.6
2018-06-21T03:07:46.398Z,15.6
2018-06-21T03:08:54.283Z,15.7
2018-06-21T03:10:02.166Z,15.7
2018-06-21T03:11:10.051Z,15.7
2018-06-21T03:12:17.942Z,15.7
2018-06-21T03:13:25.827Z,15.7
2018-06-21T03:14:33.705Z,15.6
2018-06-21T03:15:41.593Z,15.6
2018-06-21T03:16:49.485Z,15.6
2018-06-21T03:17:57.369Z,15.6
2018-06-21T03:19:05.250Z,15.6
2018-06-21T03:20:13.136Z,15.6
2018-06-21T03:21:21.024Z,15.6
2018-06-21T03:22:28.909Z,15.7
2018-06-21T03:23:36.794Z,15.7
2018-06-21T03:24:44.695Z,15.7
2018-06-21T03:25:52.588Z,15.7
2018-06-21T03:27:00.199Z,15.7
2018-06-21T03:28:08.082Z,15.7
2018-06-21T03:29:15.695Z,15.7
2018-06-21T03:30:23.588Z,15.8
2018-06-21T03:31:31.474Z,15.8
2018-06-21T03:32:39.360Z,15.8
2018-06-21T03:33:47.249Z,15.8
2018-06-21T03:34:54.861Z,15.8
2018-06-21T03:36:02.751Z,15.8
2018-06-21T03:37:10.371Z,15.8
2018-06-21T03:38:18.264Z,15.8
2018-06-21T03:39:26.146Z,15.8
2018-06-21T03:40:34.035Z,15.8
2018-06-21T03:41:41.917Z,15.8
2018-06-21T03:42:49.803Z,15.9
2018-06-21T03:43:57.690Z,15.8
2018-06-21T03:45:05.577Z,15.8
2018-06-21T03:46:13.466Z,15.8
2018-06-21T03:47:21.347Z,15.9
2018-06-21T03:48:29.235Z,15.9
2018-06-21T03:49:36.862Z,15.9
2018-06-21T03:50:44.757Z,16
2018-06-21T03:51:52.646Z,16
2018-06-21T03:53:00.534Z,16
2018-06-21T03:54:08.430Z,16
2018-06-21T03:55:16.310Z,16
2018-06-21T03:56:24.206Z,16
2018-06-21T03:57:31.816Z,16.1
2018-06-21T03:58:39.705Z,16.1
2018-06-21T03:59:47.611Z,16.1
2018-06-21T04:00:55.495Z,16.1
2018-06-21T04:02:03.390Z,16.1
2018-06-21T04:03:11.368Z,16.1
2018-06-21T04:04:19.419Z,16.1
2018-06-21T04:05:27.164Z,16.2
2018-06-21T04:06:35.313Z,16.1
2018-06-21T04:07:43.198Z,16.1
2018-06-21T04:08:51.087Z,16.1
2018-06-21T04:09:58.968Z,16.1
2018-06-21T04:11:06.855Z,16.1
2018-06-21T04:12:14.741Z,16.1
2018-06-21T04:13:22.622Z,16.2
2018-06-21T04:14:30.516Z,16.2
2018-06-21T04:15:38.403Z,16.3
2018-06-21T04:16:46.292Z,16.3
2018-06-21T04:17:54.183Z,16.4
2018-06-21T04:19:02.073Z,16.4
2018-06-21T04:20:09.960Z,16.4
2018-06-21T04:21:17.848Z,16.5
2018-06-21T04:22:25.737Z,16.5
2018-06-21T04:23:33.637Z,16.5
2018-06-21T04:24:41.521Z,16.5
2018-06-21T04:25:49.422Z,16.5
2018-06-21T04:26:57.307Z,16.5
2018-06-21T04:28:05.198Z,16.5
2018-06-21T04:29:13.088Z,16.5
2018-06-21T04:30:20.979Z,16.5
2018-06-21T04:31:28.868Z,16.6
2018-06-21T04:32:36.479Z,16.6
2018-06-21T04:33:44.369Z,16.7
2018-06-21T04:34:52.251Z,16.7
2018-06-21T04:36:00.137Z,16.8
2018-06-21T04:37:07.757Z,16.8
2018-06-21T04:38:15.646Z,16.9
2018-06-21T04:39:23.533Z,17
2018-06-21T04:40:31.461Z,17.1
2018-06-21T04:41:39.350Z,17.1
2018-06-21T04:42:47.235Z,17.1
2018-06-21T04:43:55.130Z,17
2018-06-21T04:45:03.008Z,17.1
2018-06-21T04:46:10.895Z,17.1
2018-06-21T04:47:18.780Z,17.1
2018-06-21T04:48:26.667Z,17.2
2018-06-21T04:49:34.555Z,17.3
2018-06-21T04:50:42.444Z,17.4
2018-06-21T04:51:50.371Z,17.4
2018-06-21T04:52:58.245Z,17.5
2018-06-21T04:54:06.135Z,17.5
2018-06-21T04:55:14.020Z,17.6
2018-06-21T04:56:21.909Z,17.6
2018-06-21T04:57:29.794Z,17.7
2018-06-21T04:58:37.698Z,17.7
2018-06-21T04:59:45.582Z,17.7
2018-06-21T05:00:53.470Z,17.7
2018-06-21T05:02:01.359Z,17.7
2018-06-21T05:03:09.244Z,17.7
2018-06-21T05:04:17.130Z,17.7
2018-06-21T05:05:25.021Z,17.7
2018-06-21T05:06:32.909Z,17.6
2018-06-21T05:07:40.797Z,17.7
2018-06-21T05:08:48.418Z,17.7
2018-06-21T05:09:56.304Z,17.8
2018-06-21T05:11:04.196Z,17.8
2018-06-21T05:12:11.810Z,17.8
2018-06-21T05:13:19.703Z,17.8
2018-06-21T05:14:27.593Z,17.8
2018-06-21T05:15:35.204Z,17.9
2018-06-21T05:16:42.819Z,18
2018-06-21T05:17:50.703Z,18
2018-06-21T05:18:58.595Z,18.1
2018-06-21T05:20:06.487Z,18.2
2018-06-21T05:21:14.376Z,18.3
2018-06-21T05:22:21.982Z,18.3
2018-06-21T05:23:29.600Z,18.4
2018-06-21T05:24:37.487Z,18.5
2018-06-21T05:25:45.378Z,18.6
2018-06-21T05:26:53.264Z,18.7
2018-06-21T05:28:01.150Z,18.8
2018-06-21T05:29:09.035Z,18.8
2018-06-21T05:30:16.925Z,18.9
2018-06-21T05:31:24.812Z,19
2018-06-21T05:32:32.700Z,19
2018-06-21T05:33:40.580Z,19
2018-06-21T05:34:48.468Z,19.2
2018-06-21T05:35:56.358Z,19.4
2018-06-21T05:37:04.246Z,19.4
2018-06-21T05:38:12.135Z,19.4
2018-06-21T05:39:20.229Z,19.5
2018-06-21T05:40:28.122Z,19.7
2018-06-21T05:41:36.009Z,19.8
2018-06-21T05:42:43.895Z,20
2018-06-21T05:43:51.784Z,19.9
2018-06-21T05:44:59.678Z,20
2018-06-21T05:46:07.564Z,20
2018-06-21T05:47:15.171Z,20.1
2018-06-21T05:48:23.065Z,20.2
2018-06-21T05:49:30.725Z,20.3
2018-06-21T05:50:38.607Z,20.4
2018-06-21T05:51:46.498Z,20.5
2018-06-21T05:52:54.385Z,20.7
2018-06-21T05:54:02.278Z,20.9
2018-06-21T05:55:10.160Z,21.1
2018-06-21T05:56:18.054Z,21.3
2018-06-21T05:57:25.940Z,21.3
2018-06-21T05:58:33.827Z,21.4
2018-06-21T05:59:41.718Z,21.4
2018-06-21T06:00:49.602Z,21.7
2018-06-21T06:01:57.562Z,21.9
2018-06-21T06:03:05.601Z,22
2018-06-21T06:04:13.490Z,22.1
2018-06-21T06:05:20.841Z,22.3
2018-06-21T06:06:28.448Z,22.5
2018-06-21T06:07:36.340Z,22.4
2018-06-21T06:08:44.241Z,22.4
2018-06-21T06:09:52.128Z,22.6
2018-06-21T06:11:00.018Z,22.8
2018-06-21T06:12:07.903Z,23
2018-06-21T06:13:15.795Z,23
2018-06-21T06:14:23.682Z,23
2018-06-21T06:15:31.572Z,22.9
2018-06-21T06:16:39.463Z,22.9
2018-06-21T06:17:47.354Z,23
2018-06-21T06:18:55.294Z,23.2
2018-06-21T06:20:03.275Z,23.2
2018-06-21T06:21:11.281Z,23.2
2018-06-21T06:22:19.179Z,23.4
2018-06-21T06:23:27.064Z,23.5
2018-06-21T06:24:34.957Z,23.7
2018-06-21T06:25:42.574Z,23.7
2018-06-21T06:26:50.469Z,23.6
2018-06-21T06:27:58.362Z,23.8
2018-06-21T06:29:06.259Z,24
2018-06-21T06:30:14.147Z,23.9
2018-06-21T06:31:22.033Z,23.8
2018-06-21T06:32:29.915Z,23.7
2018-06-21T06:33:37.804Z,23.7
2018-06-21T06:34:45.812Z,23.5
2018-06-21T06:35:53.912Z,23.3
2018-06-21T06:37:01.809Z,23.5
2018-06-21T06:38:09.696Z,23.6
2018-06-21T06:39:17.589Z,23.7
2018-06-21T06:40:25.269Z,23.8
2018-06-21T06:41:33.253Z,24
2018-06-21T06:42:41.141Z,24.2
2018-06-21T06:43:48.756Z,24.4
2018-06-21T06:44:56.645Z,24.6
2018-06-21T06:46:04.541Z,24.6
2018-06-21T06:47:12.432Z,24.3
2018-06-21T06:48:20.320Z,24.4
2018-06-21T06:49:28.211Z,24.4
2018-06-21T06:50:36.096Z,24.5
2018-06-21T06:51:43.988Z,24.6
2018-06-21T06:52:51.609Z,24.4
2018-06-21T06:53:59.503Z,24.5
2018-06-21T06:55:07.391Z,24.9
2018-06-21T06:56:15.280Z,25.2
2018-06-21T06:57:23.174Z,25
2018-06-21T06:58:31.064Z,25
2018-06-21T06:59:38.950Z,25
2018-06-21T07:00:46.842Z,25.1
2018-06-21T07:01:54.729Z,25.4
2018-06-21T07:03:02.624Z,25.6
2018-06-21T07:04:10.525Z,25.7
2018-06-21T07:05:18.419Z,25.4
2018-06-21T07:06:26.531Z,25.7
2018-06-21T07:07:34.423Z,25.7
2018-06-21T07:08:42.317Z,26.1
2018-06-21T07:09:50.205Z,26.1
2018-06-21T07:10:58.093Z,26.1
2018-06-21T07:12:06.022Z,26.2
2018-06-21T07:13:13.911Z,26.1
2018-06-21T07:14:21.976Z,26.3
2018-06-21T07:15:30.169Z,26.3
2018-06-21T07:16:37.778Z,26.5
2018-06-21T07:17:45.672Z,26.5
2018-06-21T07:18:53.625Z,26.2
2018-06-21T07:20:01.550Z,26.3
2018-06-21T07:21:09.440Z,26.4
2018-06-21T07:22:17.344Z,26.3
2018-06-21T07:23:25.239Z,26.5
2018-06-21T07:24:33.135Z,26.3
2018-06-21T07:25:41.033Z,26.4
2018-06-21T07:26:48.656Z,26.4
2018-06-21T07:27:56.545Z,26.6
2018-06-21T07:29:04.160Z,26.8
2018-06-21T07:30:12.102Z,26.6
2018-06-21T07:31:19.991Z,26.5
2018-06-21T07:32:27.878Z,26.5
2018-06-21T07:33:35.842Z,26.1
2018-06-21T07:34:43.834Z,25.9
2018-06-21T07:35:51.722Z,26
2018-06-21T07:36:59.621Z,26.2
2018-06-21T07:38:07.516Z,26.3
2018-06-21T07:39:15.403Z,26.6
2018-06-21T07:40:23.296Z,26.8
2018-06-21T07:41:30.924Z,26.7
2018-06-21T07:42:38.810Z,26.3
2018-06-21T07:43:46.699Z,26.3
2018-06-21T07:44:54.593Z,26.2
2018-06-21T07:46:02.207Z,26
2018-06-21T07:47:10.096Z,26.1
2018-06-21T07:48:17.986Z,26.1
2018-06-21T07:49:25.877Z,26.1
2018-06-21T07:50:33.498Z,26.3
2018-06-21T07:51:41.402Z,26.6
2018-06-21T07:52:49.304Z,26.9
2018-06-21T07:53:57.197Z,27
2018-06-21T07:55:05.089Z,26.9
2018-06-21T07:56:12.979Z,26.9
2018-06-21T07:57:20.878Z,27
2018-06-21T07:58:28.768Z,27.1
2018-06-21T07:59:36.663Z,27.2
2018-06-21T08:00:44.553Z,27.2
2018-06-21T08:01:52.446Z,27.3
2018-06-21T08:03:00.337Z,27.4
2018-06-21T08:04:08.230Z,27.3
2018-06-21T08:05:15.826Z,27.5
2018-06-21T08:06:23.712Z,27.6
2018-06-21T08:07:31.604Z,27.7
2018-06-21T08:08:39.220Z,27.3
2018-06-21T08:09:46.847Z,27.3
2018-06-21T08:10:54.467Z,27.2
2018-06-21T08:12:02.361Z,27.3
2018-06-21T08:13:10.254Z,27.3
2018-06-21T08:14:18.151Z,27.3
2018-06-21T08:15:26.041Z,27
2018-06-21T08:16:33.946Z,27
2018-06-21T08:17:41.841Z,27.2
2018-06-21T08:18:49.730Z,27.3
2018-06-21T08:19:57.628Z,26.9
2018-06-21T08:21:05.525Z,27
2018-06-21T08:22:13.138Z,27
2018-06-21T08:23:21.113Z,27.1
2018-06-21T08:24:29.245Z,27.3
2018-06-21T08:25:37.135Z,27.4
2018-06-21T08:26:45.055Z,27.6
2018-06-21T08:27:53.139Z,27.7
2018-06-21T08:29:01.037Z,27.9
2018-06-21T08:30:08.931Z,28
2018-06-21T08:31:16.824Z,27.8
2018-06-21T08:32:24.717Z,27.7
2018-06-21T08:33:32.620Z,27.9
2018-06-21T08:34:40.509Z,27.5
2018-06-21T08:35:48.401Z,27.4
2018-06-21T08:36:56.298Z,26.9
2018-06-21T08:38:04.198Z,27
2018-06-21T08:39:12.094Z,27.3
2018-06-21T08:40:19.722Z,27.4
2018-06-21T08:41:27.617Z,27.5
2018-06-21T08:42:35.731Z,27.2
2018-06-21T08:43:43.620Z,27.1
2018-06-21T08:44:51.513Z,26.9
2018-06-21T08:45:59.424Z,26.9
2018-06-21T08:47:07.409Z,26.8
2018-06-21T08:48:15.041Z,26.8
2018-06-21T08:49:22.930Z,27.1
2018-06-21T08:50:30.823Z,27.2
2018-06-21T08:51:38.714Z,26.8
2018-06-21T08:52:46.336Z,26.7
2018-06-21T08:53:54.232Z,26.8
2018-06-21T08:55:02.126Z,26.6
2018-06-21T08:56:10.022Z,26.4
2018-06-21T08:57:17.910Z,26.3
2018-06-21T08:58:25.913Z,26.2
2018-06-21T08:59:33.973Z,26.4
2018-06-21T09:00:41.862Z,26.4
2018-06-21T09:01:49.757Z,26.7
2018-06-21T09:02:57.655Z,27.2
2018-06-21T09:04:05.554Z,27.4
2018-06-21T09:05:13.442Z,27.2
2018-06-21T09:06:21.338Z,27.2
2018-06-21T09:07:29.233Z,27.3
2018-06-21T09:08:37.131Z,27.1
2018-06-21T09:09:45.122Z,27.1
2018-06-21T09:10:52.778Z,27.5
2018-06-21T09:12:00.671Z,27.8
2018-06-21T09:13:08.563Z,27.8
2018-06-21T09:14:16.458Z,27.9
2018-06-21T09:15:24.508Z,28.3
2018-06-21T09:16:32.617Z,28.3
2018-06-21T09:17:40.512Z,27.9
2018-06-21T09:18:48.406Z,27.7
2018-06-21T09:19:56.300Z,27.7
2018-06-21T09:21:04.247Z,27.7
2018-06-21T09:22:12.207Z,27.5
2018-06-21T09:23:20.108Z,27.5
2018-06-21T09:24:28.002Z,27.9
2018-06-21T09:25:35.897Z,28
2018-06-21T09:26:43.792Z,27.8
2018-06-21T09:27:51.685Z,27.5
2018-06-21T09:28:59.585Z,27.3
2018-06-21T09:30:07.481Z,27.3
2018-06-21T09:31:15.380Z,27.5
2018-06-21T09:32:23.273Z,28
2018-06-21T09:33:31.169Z,28.2
2018-06-21T09:34:39.061Z,28.5
2018-06-21T09:35:46.957Z,28.9
2018-06-21T09:36:54.851Z,28.7
2018-06-21T09:38:02.741Z,28.6
2018-06-21T09:39:10.633Z,28.7
2018-06-21T09:40:18.524Z,28.8
2018-06-21T09:41:26.136Z,29
2018-06-21T09:42:34.030Z,29.2
2018-06-21T09:44:04.357Z,28.9
2018-06-21T09:45:12.270Z,28.7
2018-06-21T09:46:20.161Z,28.5
2018-06-21T09:47:28.061Z,28.6
2018-06-21T09:48:35.961Z,28.7
2018-06-21T09:49:43.849Z,28.5
2018-06-21T09:50:51.746Z,28.3
2018-06-21T09:51:59.640Z,28.2
2018-06-21T09:53:07.262Z,28.2
2018-06-21T09:54:15.156Z,27.8
2018-06-21T09:55:23.065Z,27.8
2018-06-21T09:56:30.972Z,28.1
2018-06-21T09:57:38.923Z,28.4
2018-06-21T09:58:46.910Z,28.4
2018-06-21T09:59:54.809Z,28.6
2018-06-21T10:01:02.701Z,28.7
2018-06-21T10:02:10.605Z,28.9
2018-06-21T10:03:18.502Z,28.8
2018-06-21T10:04:26.390Z,28.5
2018-06-21T10:05:34.284Z,28.2
2018-06-21T10:06:42.182Z,28.1
2018-06-21T10:07:50.072Z,28
2018-06-21T10:08:57.963Z,28.2
2018-06-21T10:10:05.862Z,28
2018-06-21T10:11:13.760Z,28.3
2018-06-21T10:12:21.380Z,28.2
2018-06-21T10:13:29.278Z,28
2018-06-21T10:14:37.174Z,28
2018-06-21T10:15:45.124Z,27.7
2018-06-21T10:16:53.141Z,27.4
2018-06-21T10:18:15.686Z,27.3
2018-06-21T10:19:23.579Z,27.4
2018-06-21T10:20:31.618Z,27.5
2018-06-21T10:21:39.836Z,27.4
2018-06-21T10:22:47.732Z,27.7
2018-06-21T10:23:55.651Z,27.8
2018-06-21T10:25:03.541Z,27.8
2018-06-21T10:26:11.435Z,27.7
2018-06-21T10:27:19.327Z,27.7
2018-06-21T10:28:26.949Z,27.5
2018-06-21T10:29:34.851Z,27.4
2018-06-21T10:30:43.118Z,27.1
2018-06-21T10:31:51.381Z,27.1
2018-06-21T10:32:59.275Z,27
2018-06-21T10:34:07.173Z,26.5
2018-06-21T10:35:14.810Z,26.6
2018-06-21T10:36:22.699Z,26.8
2018-06-21T10:37:30.609Z,27.1
2018-06-21T10:38:38.504Z,27.2
2018-06-21T10:39:46.406Z,27.3
2018-06-21T10:40:54.306Z,27.2
2018-06-21T10:42:02.196Z,27.1
2018-06-21T10:43:10.094Z,26.9
2018-06-21T10:44:17.990Z,26.7
2018-06-21T10:45:25.333Z,26.9
2018-06-21T10:46:33.233Z,27
2018-06-21T10:47:41.119Z,27
2018-06-21T10:48:49.037Z,26.8
2018-06-21T10:49:56.935Z,26.8
2018-06-21T10:51:04.823Z,26.7
2018-06-21T10:52:12.719Z,26.7
2018-06-21T10:53:20.610Z,26.9
2018-06-21T10:54:28.503Z,27
2018-06-21T10:55:36.404Z,27
2018-06-21T10:56:44.304Z,26.7
2018-06-21T10:57:52.203Z,26.6
2018-06-21T10:59:00.102Z,26.5
2018-06-21T11:00:07.995Z,26.5
2018-06-21T11:01:15.894Z,26.5
2018-06-21T11:02:23.513Z,26.6
2018-06-21T11:03:31.131Z,26.7
2018-06-21T11:04:38.751Z,26.5
2018-06-21T11:05:46.645Z,26.5
2018-06-21T11:06:54.551Z,27
2018-06-21T11:08:02.447Z,27.3
2018-06-21T11:09:10.059Z,27.3
2018-06-21T11:10:17.953Z,27.3
2018-06-21T11:11:25.851Z,27.1
2018-06-21T11:12:33.736Z,27.1
2018-06-21T11:13:41.632Z,27
2018-06-21T11:14:49.678Z,26.8
2018-06-21T11:15:57.772Z,26.8
2018-06-21T11:17:05.664Z,26.7
2018-06-21T11:18:13.566Z,26.9
2018-06-21T11:19:21.491Z,27.1
2018-06-21T11:20:29.397Z,27.1
2018-06-21T11:21:37.293Z,27.4
2018-06-21T11:22:44.913Z,27.6
2018-06-21T11:23:52.540Z,27.6
2018-06-21T11:25:00.159Z,27.6
2018-06-21T11:26:08.052Z,27.9
2018-06-21T11:27:15.689Z,27.6
2018-06-21T11:28:23.568Z,27.5
2018-06-21T11:29:31.186Z,27.5
2018-06-21T11:30:39.080Z,27.3
2018-06-21T11:31:46.699Z,27
2018-06-21T11:32:54.327Z,26.8
2018-06-21T11:34:02.224Z,26.7
2018-06-21T11:35:10.122Z,26.4
2018-06-21T11:36:18.008Z,26.1
2018-06-21T11:37:25.903Z,25.9
2018-06-21T11:38:33.800Z,25.9
2018-06-21T11:39:41.702Z,25.5
2018-06-21T11:40:49.607Z,25
2018-06-21T11:41:57.506Z,24.7
2018-06-21T11:43:05.129Z,24.4
2018-06-21T11:44:12.751Z,24.5
2018-06-21T11:45:20.650Z,24.2
2018-06-21T11:46:28.540Z,24
2018-06-21T11:47:36.161Z,24
2018-06-21T11:48:44.049Z,23.9
2018-06-21T11:49:51.676Z,24.1
2018-06-21T11:50:59.574Z,24.1
2018-06-21T11:52:07.472Z,24.3
2018-06-21T11:53:15.355Z,24.2
2018-06-21T11:54:23.253Z,24.6
2018-06-21T11:55:30.872Z,24.8
2018-06-21T11:56:38.767Z,24.9
2018-06-21T11:57:46.668Z,25.1
2018-06-21T11:58:54.553Z,25.3
2018-06-21T12:00:02.448Z,25.5
2018-06-21T12:01:10.343Z,25.4
2018-06-21T12:02:18.237Z,25.2
2018-06-21T12:03:25.881Z,25.1
2018-06-21T12:04:33.879Z,25.2
2018-06-21T12:05:41.771Z,25.2
2018-06-21T12:06:49.670Z,24.6
2018-06-21T12:07:57.570Z,24.6
2018-06-21T12:09:05.461Z,24.9
2018-06-21T12:10:13.361Z,24.8
2018-06-21T12:11:21.244Z,24.9
2018-06-21T12:12:29.145Z,24.8
2018-06-21T12:13:37.044Z,24.3
2018-06-21T12:14:44.936Z,24.5
2018-06-21T12:15:52.835Z,24.2
2018-06-21T12:17:00.727Z,24
2018-06-21T12:18:08.635Z,24
2018-06-21T12:19:16.253Z,23.9
2018-06-21T12:20:24.147Z,23.8
2018-06-21T12:21:32.042Z,23.8
2018-06-21T12:22:39.934Z,23.4
2018-06-21T12:23:47.552Z,23.3
2018-06-21T12:24:55.443Z,23.2
2018-06-21T12:26:03.361Z,23
2018-06-21T12:27:11.309Z,22.7
2018-06-21T12:28:19.201Z,22.2
2018-06-21T12:29:27.097Z,22.2
2018-06-21T12:30:34.990Z,22.1
2018-06-21T12:31:42.892Z,22.2
2018-06-21T12:32:50.786Z,22.1
2018-06-21T12:33:58.678Z,22.3
2018-06-21T12:35:06.571Z,22.4
2018-06-21T12:36:14.468Z,22.5
2018-06-21T12:37:22.362Z,22.4
2018-06-21T12:38:30.255Z,22.4
2018-06-21T12:39:38.146Z,22.4
2018-06-21T12:40:46.039Z,22.5
2018-06-21T12:41:53.931Z,22.4
2018-06-21T12:43:01.827Z,22.3
2018-06-21T12:44:09.718Z,22.3
2018-06-21T12:45:17.339Z,22.3
2018-06-21T12:46:25.234Z,22.3
2018-06-21T12:47:33.130Z,22
2018-06-21T12:48:41.026Z,21.8
2018-06-21T12:49:48.913Z,21.6
2018-06-21T12:50:56.812Z,21.6
2018-06-21T12:52:04.699Z,21.5
2018-06-21T12:53:12.595Z,21.4
2018-06-21T12:54:20.491Z,21.2
2018-06-21T12:55:28.106Z,21.2
2018-06-21T12:56:36.014Z,21.1
2018-06-21T12:57:43.629Z,21.1
2018-06-21T12:58:51.524Z,21.1
2018-06-21T12:59:59.420Z,21.1
2018-06-21T13:01:07.306Z,21
2018-06-21T13:02:15.204Z,21
2018-06-21T13:03:23.098Z,20.9
2018-06-21T13:04:30.987Z,20.9
2018-06-21T13:05:38.332Z,20.8
2018-06-21T13:06:46.226Z,20.9
2018-06-21T13:07:54.114Z,20.8
2018-06-21T13:09:02.011Z,20.8
2018-06-21T13:10:09.623Z,20.8
2018-06-21T13:11:17.245Z,20.8
2018-06-21T13:12:25.140Z,20.7
2018-06-21T13:13:33.037Z,20.8
2018-06-21T13:14:40.925Z,20.9
2018-06-21T13:15:48.820Z,21.1
2018-06-21T13:16:56.714Z,21.4
2018-06-21T13:18:04.602Z,21.8
2018-06-21T13:19:12.489Z,22.3
2018-06-21T13:20:20.382Z,22.8
2018-06-21T13:21:28.323Z,23.2
2018-06-21T13:22:36.219Z,23.3
2018-06-21T13:23:44.110Z,23.6
2018-06-21T13:24:51.729Z,23.7
2018-06-21T13:25:59.351Z,23.7
2018-06-21T13:27:07.253Z,23.9
2018-06-21T13:28:15.145Z,24.2
2018-06-21T13:29:23.039Z,24.3
2018-06-21T13:30:30.665Z,24.4
2018-06-21T13:31:38.578Z,24.6
2018-06-21T13:32:46.469Z,24.8
2018-06-21T13:33:54.359Z,24.7
2018-06-21T13:35:02.246Z,24.4
2018-06-21T13:36:10.160Z,24.5
2018-06-21T13:37:18.048Z,24.7
2018-06-21T13:38:25.940Z,24.5
2018-06-21T13:39:33.833Z,24.3
2018-06-21T13:40:41.746Z,24.3
2018-06-21T13:41:49.638Z,24.6
2018-06-21T13:42:57.534Z,25
2018-06-21T13:44:05.432Z,25.2
2018-06-21T13:45:13.322Z,25.2
2018-06-21T13:46:21.212Z,24.8
2018-06-21T13:47:29.104Z,24.7
2018-06-21T13:48:36.997Z,24.9
2018-06-21T13:49:44.895Z,24.7
2018-06-21T13:50:52.815Z,24.5
2018-06-21T13:52:00.702Z,24.3
2018-06-21T13:53:08.597Z,24.3
2018-06-21T13:54:16.485Z,24.3
2018-06-21T13:55:24.100Z,24.4
2018-06-21T13:56:31.993Z,24.7
2018-06-21T13:57:39.881Z,24.8
2018-06-21T13:58:47.495Z,24.9
2018-06-21T13:59:55.114Z,25
2018-06-21T14:01:03.006Z,24.8
2018-06-21T14:02:10.898Z,24.7
2018-06-21T14:03:18.787Z,24.6
2018-06-21T14:04:26.410Z,24.5
2018-06-21T14:05:34.307Z,24.5
2018-06-21T14:06:42.192Z,24.5
2018-06-21T14:07:50.260Z,24.5
2018-06-21T14:08:58.292Z,24.8
2018-06-21T14:10:06.190Z,24.9
2018-06-21T14:11:14.082Z,25
2018-06-21T14:12:21.972Z,24.8
2018-06-21T14:13:29.862Z,24.8
2018-06-21T14:14:37.785Z,25.4
2018-06-21T14:15:45.719Z,25.4
2018-06-21T14:16:53.333Z,25.5
2018-06-21T14:18:01.228Z,25.4
2018-06-21T14:19:09.131Z,25.3
2018-06-21T14:20:17.075Z,25.4
2018-06-21T14:21:24.962Z,25
2018-06-21T14:22:32.851Z,24.6
2018-06-21T14:23:40.983Z,24.1
2018-06-21T14:24:49.112Z,24.3
2018-06-21T14:25:57.144Z,24.5
2018-06-21T14:27:05.031Z,24.5
2018-06-21T14:28:12.646Z,24.3
2018-06-21T14:29:20.549Z,24.3
2018-06-21T14:30:28.441Z,24.2
2018-06-21T14:31:36.334Z,24.3
2018-06-21T14:32:44.226Z,24.2
2018-06-21T14:33:52.119Z,24.1
2018-06-21T14:34:59.738Z,24
2018-06-21T14:36:07.629Z,23.9
2018-06-21T14:37:15.520Z,23.9
2018-06-21T14:38:23.413Z,24.1
2018-06-21T14:39:31.306Z,24.4
2018-06-21T14:40:39.201Z,24.8
2018-06-21T14:41:47.094Z,25
2018-06-21T14:42:54.983Z,25.1
2018-06-21T14:44:02.879Z,25.1
2018-06-21T14:45:10.769Z,25
2018-06-21T14:46:18.660Z,24.6
2018-06-21T14:47:26.564Z,24.9
2018-06-21T14:48:34.455Z,25.2
2018-06-21T14:49:42.371Z,25.5
2018-06-21T14:50:50.263Z,25.4
2018-06-21T14:51:58.176Z,25.1
2018-06-21T14:53:06.075Z,24.7
2018-06-21T14:54:13.693Z,24.8
2018-06-21T14:55:21.592Z,25.2
2018-06-21T14:56:29.488Z,25.6
2018-06-21T14:57:37.378Z,25.7
2018-06-21T14:58:44.993Z,25.6
2018-06-21T14:59:52.887Z,25.8
2018-06-21T15:01:00.785Z,25.4
2018-06-21T15:02:08.686Z,25.6
2018-06-21T15:03:16.580Z,25.4
2018-06-21T15:04:24.482Z,25.5
2018-06-21T15:05:32.385Z,25.4
2018-06-21T15:06:40.279Z,24.9
2018-06-21T15:07:47.903Z,24.8
2018-06-21T15:08:55.900Z,24.6